.
WxDataArchive / Data Records for 2010-01-11
2010-01-10 January 2010 2010-01-12

Data Records for Monday, 11 January 2010

Time	Temp	Chill	HIndex	Humid	Dewpt	 Wind 	HiWind	WindDir	Rain 	Barom 
-----	----	-----	------	-----	-----	------	------	-------	-----	----- 
00:00	15.4	15.4	15.4	65	5.8	3	9	248	0.00	30.264 
00:05	15.6	15.6	15.6	64	5.6	2	5	248	0.00	30.264 
00:10	15.6	15.6	15.6	64	5.6	3	7	248	0.00	30.264 
00:15	15.7	15.7	15.7	63	5.4	3	9	248	0.00	30.258 
00:20	15.7	15.7	15.7	64	5.7	2	5	248	0.00	30.258 
00:25	15.9	15.9	15.9	63	5.6	3	9	248	0.00	30.258 
00:30	15.9	9.5	15.9	63	5.6	4	9	248	0.00	30.252 
00:35	16.1	16.1	16.1	62	5.4	3	8	248	0.00	30.252 
00:40	16.1	16.1	16.1	62	5.4	3	8	270	0.00	30.252 
00:45	16.1	16.1	16.1	62	5.4	3	6	270	0.00	30.244 
00:50	16.2	16.2	16.2	62	5.5	3	10	270	0.00	30.244 
00:55	16.2	16.2	16.2	62	5.5	3	12	248	0.00	30.244 
01:00	16.2	16.2	16.2	62	5.5	2	7	248	0.00	30.237 
01:05	16.2	16.2	16.2	62	5.5	3	7	248	0.00	30.237 
01:10	16.1	16.1	16.1	62	5.4	3	6	248	0.00	30.237 
01:15	16.1	16.1	16.1	62	5.4	2	7	270	0.00	30.225 
01:20	16.1	16.1	16.1	62	5.4	3	5	248	0.00	30.225 
01:25	16.1	16.1	16.1	62	5.4	2	5	248	0.00	30.225 
01:30	15.9	15.9	15.9	62	5.2	2	5	248	0.00	30.219 
01:35	15.9	15.9	15.9	63	5.6	2	6	248	0.00	30.219 
01:40	15.9	15.9	15.9	63	5.6	2	6	248	0.00	30.219 
01:45	15.9	15.9	15.9	63	5.6	2	6	248	0.00	30.211 
01:50	16.1	16.1	16.1	63	5.8	2	6	270	0.00	30.211 
01:55	16.1	16.1	16.1	63	5.8	3	9	248	0.00	30.211 
02:00	16.2	16.2	16.2	63	5.9	3	7	248	0.00	30.209 
02:05	16.4	16.4	16.4	63	6.0	2	7	248	0.00	30.209 
02:10	16.4	16.4	16.4	64	6.4	2	6	248	0.00	30.209 
02:15	16.5	16.5	16.5	64	6.5	3	8	248	0.00	30.208 
02:20	16.5	16.5	16.5	64	6.5	2	5	248	0.00	30.208 
02:25	16.5	16.5	16.5	64	6.5	2	6	248	0.00	30.208 
02:30	16.7	16.7	16.7	64	6.7	2	7	248	0.00	30.205 
02:35	16.7	16.7	16.7	65	7.0	3	6	225	0.00	30.205 
02:40	16.7	16.7	16.7	65	7.0	2	5	248	0.00	30.205 
02:45	16.9	16.9	16.9	65	7.2	2	7	248	0.00	30.198 
02:50	16.9	16.9	16.9	65	7.2	1	5	248	0.00	30.198 
02:55	16.9	16.9	16.9	65	7.2	1	5	248	0.00	30.198 
03:00	17.0	17.0	17.0	65	7.3	2	6	248	0.00	30.191 
03:05	17.0	17.0	17.0	66	7.6	1	4	248	0.00	30.191 
03:10	17.0	17.0	17.0	66	7.6	2	4	248	0.00	30.191 
03:15	17.0	17.0	17.0	66	7.6	2	5	270	0.00	30.183 
03:20	17.0	17.0	17.0	66	7.6	1	5	225	0.00	30.183 
03:25	17.0	17.0	17.0	66	7.6	2	6	248	0.00	30.183 
03:30	17.2	17.2	17.2	67	8.2	1	4	248	0.00	30.176 
03:35	17.2	17.2	17.2	67	8.2	2	6	248	0.00	30.176 
03:40	17.2	17.2	17.2	67	8.2	1	5	248	0.00	30.176 
03:45	17.2	17.2	17.2	67	8.2	1	4	270	0.00	30.164 
03:50	17.2	17.2	17.2	67	8.2	1	6	248	0.00	30.164 
03:55	17.2	17.2	17.2	67	8.2	2	5	248	0.00	30.164 
04:00	17.2	17.2	17.2	67	8.2	1	6	248	0.00	30.160 
04:05	17.3	17.3	17.3	68	8.6	1	4	248	0.00	30.160 
04:10	17.3	17.3	17.3	68	8.6	2	5	248	0.00	30.160 
04:15	17.3	17.3	17.3	68	8.6	1	4	248	0.00	30.154 
04:20	17.5	17.5	17.5	68	8.8	2	5	248	0.00	30.154 
04:25	17.5	17.5	17.5	68	8.8	1	3	248	0.00	30.154 
04:30	17.7	17.7	17.7	69	9.3	1	3	270	0.00	30.146 
04:35	17.8	17.8	17.8	69	9.4	1	4	248	0.00	30.146 
04:40	17.8	17.8	17.8	69	9.4	2	5	248	0.00	30.146 
04:45	17.8	17.8	17.8	69	9.4	1	3	225	0.00	30.144 
04:50	18.0	18.0	18.0	69	9.6	1	5	225	0.00	30.144 
04:55	18.0	18.0	18.0	69	9.6	2	6	225	0.00	30.144 
05:00	18.1	18.1	18.1	69	9.7	2	6	248	0.00	30.141 
05:05	18.1	18.1	18.1	69	9.7	1	4	248	0.00	30.141 
05:10	18.3	18.3	18.3	69	9.9	2	5	248	0.00	30.141 
05:15	18.4	18.4	18.4	69	10.0	1	5	248	0.00	30.137 
05:20	18.4	18.4	18.4	70	10.3	1	5	248	0.00	30.137 
05:25	18.6	18.6	18.6	70	10.5	2	4	248	0.00	30.137 
05:30	18.6	18.6	18.6	70	10.5	1	6	248	0.00	30.134 
05:35	18.8	18.8	18.8	69	10.3	2	6	225	0.00	30.134 
05:40	18.9	18.9	18.9	69	10.4	1	3	248	0.00	30.134 
05:45	18.9	18.9	18.9	69	10.4	2	8	248	0.00	30.133 
05:50	19.1	19.1	19.1	69	10.6	1	6	248	0.00	30.133 
05:55	19.2	19.2	19.2	69	10.7	2	9	248	0.00	30.133 
06:00	19.2	19.2	19.2	69	10.7	2	5	248	0.00	30.136 
06:05	19.4	19.4	19.4	69	10.9	2	6	248	0.00	30.136 
06:10	19.4	19.4	19.4	69	10.9	2	6	248	0.00	30.136 
06:15	19.4	19.4	19.4	69	10.9	1	4	248	0.00	30.135 
06:20	19.4	19.4	19.4	69	10.9	1	6	248	0.00	30.135 
06:25	19.4	19.4	19.4	69	10.9	1	4	248	0.00	30.135 
06:30	19.5	19.5	19.5	69	11.0	1	5	225	0.00	30.127 
06:35	19.5	19.5	19.5	69	11.0	1	4	248	0.00	30.127 
06:40	19.5	19.5	19.5	69	11.0	1	7	248	0.00	30.127 
06:45	19.7	19.7	19.7	69	11.2	2	5	248	0.00	30.130 
06:50	19.7	19.7	19.7	69	11.2	1	9	225	0.00	30.130 
06:55	19.7	19.7	19.7	69	11.2	2	6	248	0.00	30.130 
07:00	19.7	19.7	19.7	69	11.2	2	5	248	0.00	30.129 
07:05	19.7	19.7	19.7	70	11.5	1	4	248	0.00	30.129 
07:10	19.7	19.7	19.7	70	11.5	1	5	225	0.00	30.129 
07:15	19.9	19.9	19.9	69	11.4	2	5	248	0.00	30.126 
07:20	19.9	19.9	19.9	70	11.7	0	4	248	0.00	30.126 
07:25	19.9	19.9	19.9	70	11.7	1	4	248	0.00	30.126 
07:30	19.9	19.9	19.9	70	11.7	1	4	248	0.00	30.131 
07:35	20.0	20.0	20.0	69	11.5	2	5	248	0.00	30.131 
07:40	20.0	20.0	20.0	69	11.5	2	5	248	0.00	30.131 
07:45	20.2	20.2	20.2	69	11.7	2	5	248	0.00	30.129 
07:50	20.2	20.2	20.2	69	11.7	2	5	248	0.00	30.129 
07:55	20.3	20.3	20.3	69	11.8	2	4	225	0.00	30.129 
08:00	20.3	20.3	20.3	69	11.8	2	5	248	0.00	30.126 
08:05	20.3	20.3	20.3	69	11.8	1	3	248	0.00	30.126 
08:10	20.3	20.3	20.3	69	11.8	1	4	248	0.00	30.126 
08:15	20.3	20.3	20.3	70	12.1	1	4	248	0.00	30.134 
08:20	20.5	20.5	20.5	70	12.3	2	5	225	0.00	30.134 
08:25	20.5	20.5	20.5	70	12.3	2	5	248	0.00	30.134 
08:30	20.5	20.5	20.5	71	12.6	2	8	248	0.00	30.133 
08:35	20.5	20.5	20.5	71	12.6	2	5	248	0.00	30.133 
08:40	20.5	20.5	20.5	72	12.9	1	3	248	0.00	30.133 
08:45	20.5	20.5	20.5	72	12.9	1	3	248	0.00	30.131 
08:50	20.5	20.5	20.5	73	13.2	2	6	248	0.00	30.131 
08:55	20.3	20.3	20.3	73	13.1	2	6	248	0.00	30.131 
09:00	20.3	20.3	20.3	73	13.1	2	6	225	0.00	30.133 
09:05	20.3	20.3	20.3	74	13.4	2	5	248	0.00	30.133 
09:10	20.3	20.3	20.3	74	13.4	1	4	225	0.00	30.133 
09:15	20.3	20.3	20.3	75	13.7	1	4	248	0.00	30.132 
09:20	20.3	20.3	20.3	75	13.7	2	6	248	0.00	30.132 
09:25	20.5	20.5	20.5	75	13.9	1	4	248	0.00	30.132 
09:30	20.5	20.5	20.5	76	14.2	1	4	248	0.00	30.131 
09:35	20.6	20.6	20.6	76	14.3	1	4	248	0.00	30.131 
09:40	20.6	20.6	20.6	76	14.3	1	6	248	0.00	30.131 
09:45	20.8	20.8	20.8	76	14.5	1	4	248	0.00	30.133 
09:50	21.0	21.0	21.0	76	14.6	1	3	225	0.00	30.133 
09:55	21.0	21.0	21.0	76	14.6	1	2	248	0.00	30.133 
10:00	21.1	21.1	21.1	76	14.7	0	1	248	0.00	30.133 
10:05	21.3	21.3	21.3	75	14.6	1	3	248	0.00	30.133 
10:10	21.4	21.4	21.4	75	14.7	1	4	248	0.00	30.133 
10:15	21.6	21.6	21.6	75	14.9	2	5	248	0.00	30.129 
10:20	21.6	21.6	21.6	74	14.6	2	4	225	0.00	30.129 
10:25	21.6	21.6	21.6	75	14.9	1	4	270	0.00	30.129 
10:30	21.8	21.8	21.8	75	15.1	1	4	248	0.00	30.131 
10:35	21.8	21.8	21.8	75	15.1	2	7	248	0.00	30.131 
10:40	21.8	21.8	21.8	75	15.1	1	3	270	0.00	30.131 
10:45	21.9	21.9	21.9	75	15.2	2	5	248	0.00	30.134 
10:50	21.8	21.8	21.8	75	15.1	3	5	248	0.00	30.134 
10:55	21.9	21.9	21.9	75	15.2	2	7	248	0.00	30.134 
11:00	21.9	21.9	21.9	75	15.2	2	4	248	0.00	30.137 
11:05	22.2	22.2	22.2	75	15.5	3	6	248	0.00	30.137 
11:10	22.4	22.4	22.4	75	15.7	2	6	248	0.00	30.137 
11:15	22.4	22.4	22.4	74	15.4	2	5	248	0.00	30.138 
11:20	22.5	22.5	22.5	74	15.5	2	6	248	0.00	30.138 
11:25	22.7	22.7	22.7	74	15.7	2	6	225	0.00	30.138 
11:30	22.7	22.7	22.7	73	15.4	2	5	225	0.00	30.140 
11:35	22.7	22.7	22.7	73	15.4	2	5	270	0.00	30.140 
11:40	23.0	23.0	23.0	73	15.7	1	6	270	0.00	30.140 
11:45	23.0	23.0	23.0	72	15.3	3	7	270	0.00	30.138 
11:50	23.0	23.0	23.0	73	15.7	2	7	225	0.00	30.138 
11:55	23.2	23.2	23.2	72	15.5	2	5	248	0.00	30.138 
12:00	23.2	23.2	23.2	73	15.9	2	5	270	0.00	30.131 
12:05	23.2	23.2	23.2	72	15.5	2	3	248	0.00	30.131 
12:10	23.3	23.3	23.3	72	15.6	2	5	248	0.00	30.131 
12:15	23.3	23.3	23.3	72	15.6	2	5	248	0.00	30.129 
12:20	23.2	23.2	23.2	71	15.2	2	5	248	0.00	30.129 
12:25	23.0	23.0	23.0	70	14.7	2	4	225	0.00	30.129 
12:30	23.2	23.2	23.2	70	14.9	2	4	248	0.00	30.127 
12:35	23.5	23.5	23.5	69	14.9	2	3	270	0.00	30.127 
12:40	23.6	23.6	23.6	68	14.6	2	6	248	0.00	30.127 
12:45	23.9	23.9	23.9	67	14.6	2	5	248	0.00	30.124 
12:50	24.1	24.1	24.1	64	13.7	2	4	315	0.00	30.124 
12:55	24.2	24.2	24.2	64	13.8	2	4	248	0.00	30.124 
13:00	24.4	24.4	24.4	64	14.0	2	4	270	0.00	30.124 
13:05	24.4	24.4	24.4	64	14.0	2	4	248	0.00	30.124 
13:10	24.7	24.7	24.7	64	14.3	1	3	248	0.00	30.124 
13:15	24.7	24.7	24.7	64	14.3	2	4	292	0.00	30.121 
13:20	25.0	25.0	25.0	64	14.6	2	3	270	0.00	30.121 
13:25	25.1	25.1	25.1	63	14.3	2	4	270	0.00	30.121 
13:30	25.3	25.3	25.3	63	14.5	2	3	270	0.00	30.115 
13:35	25.1	25.1	25.1	64	14.7	2	5	248	0.00	30.115 
13:40	24.7	24.7	24.7	64	14.3	2	4	270	0.00	30.115 
13:45	24.7	24.7	24.7	65	14.6	2	4	248	0.00	30.113 
13:50	24.7	24.7	24.7	65	14.6	2	4	225	0.00	30.113 
13:55	24.5	24.5	24.5	65	14.4	2	5	248	0.00	30.113 
14:00	24.5	24.5	24.5	65	14.4	2	4	248	0.00	30.111 
14:05	24.5	24.5	24.5	65	14.4	2	4	270	0.00	30.111 
14:10	24.7	24.7	24.7	66	15.0	2	3	248	0.00	30.111 
14:15	24.7	24.7	24.7	66	15.0	1	3	225	0.00	30.112 
14:20	24.7	24.7	24.7	66	15.0	2	4	270	0.00	30.112 
14:25	24.7	24.7	24.7	66	15.0	2	5	270	0.00	30.112 
14:30	24.7	24.7	24.7	66	15.0	2	5	270	0.00	30.118 
14:35	24.8	24.8	24.8	67	15.4	2	3	270	0.00	30.118 
14:40	24.7	24.7	24.7	67	15.3	2	4	270	0.00	30.118 
14:45	24.7	24.7	24.7	68	15.7	2	5	270	0.00	30.118 
14:50	24.5	24.5	24.5	68	15.5	2	4	270	0.00	30.118 
14:55	24.7	24.7	24.7	69	16.0	2	5	270	0.00	30.118 
15:00	24.7	24.7	24.7	69	16.0	2	4	248	0.00	30.121 
15:05	24.5	24.5	24.5	69	15.8	2	5	270	0.00	30.121 
15:10	24.7	24.7	24.7	70	16.3	1	4	270	0.00	30.121 
15:15	24.8	24.8	24.8	70	16.4	2	3	248	0.00	30.124 
15:20	25.1	25.1	25.1	69	16.4	2	3	270	0.00	30.124 
15:25	25.3	25.3	25.3	69	16.6	2	5	270	0.00	30.124 
15:30	25.3	25.3	25.3	69	16.6	2	6	270	0.00	30.126 
15:35	25.1	25.1	25.1	69	16.4	2	4	270	0.00	30.126 
15:40	25.0	25.0	25.0	70	16.6	1	3	338	0.00	30.126 
15:45	25.0	25.0	25.0	70	16.6	1	3	315	0.00	30.136 
15:50	24.8	24.8	24.8	71	16.8	1	3	248	0.00	30.136 
15:55	24.7	24.7	24.7	71	16.7	2	5	248	0.00	30.136 
16:00	24.5	24.5	24.5	72	16.8	2	4	248	0.00	30.140 
16:05	24.4	24.4	24.4	73	17.0	1	2	248	0.00	30.140 
16:10	24.4	24.4	24.4	74	17.3	2	4	248	0.00	30.140 
16:15	24.4	24.4	24.4	74	17.3	1	4	248	0.00	30.148 
16:20	24.4	24.4	24.4	74	17.3	2	4	248	0.00	30.148 
16:25	24.4	24.4	24.4	74	17.3	1	3	248	0.00	30.148 
16:30	24.4	24.4	24.4	74	17.3	1	3	248	0.00	30.155 
16:35	24.2	24.2	24.2	75	17.4	1	2	248	0.00	30.155 
16:40	24.2	24.2	24.2	75	17.4	1	3	248	0.00	30.155 
16:45	24.2	24.2	24.2	75	17.4	2	5	225	0.00	30.157 
16:50	24.2	24.2	24.2	75	17.4	2	4	270	0.00	30.157 
16:55	24.2	24.2	24.2	76	17.7	1	3	270	0.00	30.157 
17:00	24.2	24.2	24.2	76	17.7	1	2	270	0.00	30.167 
17:05	24.2	24.2	24.2	77	18.1	1	5	248	0.00	30.167 
17:10	24.1	24.1	24.1	77	18.0	1	4	248	0.00	30.167 
17:15	24.1	24.1	24.1	78	18.3	1	5	248	0.00	30.171 
17:20	23.9	23.9	23.9	78	18.1	1	4	248	0.00	30.171 
17:25	23.8	23.8	23.8	78	18.0	1	5	248	0.00	30.171 
17:30	23.6	23.6	23.6	79	18.1	2	5	248	0.00	30.178 
17:35	23.5	23.5	23.5	79	18.0	2	5	248	0.00	30.178 
17:40	23.3	23.3	23.3	80	18.1	1	3	270	0.00	30.178 
17:45	23.2	23.2	23.2	80	18.0	1	4	248	0.00	30.184 
17:50	23.2	23.2	23.2	80	18.0	2	6	248	0.00	30.184 
17:55	23.2	23.2	23.2	80	18.0	2	5	248	0.00	30.184 
18:00	23.2	23.2	23.2	80	18.0	2	7	270	0.01	30.188 
18:05	23.2	23.2	23.2	80	18.0	2	5	248	0.00	30.188 
18:10	23.2	23.2	23.2	81	18.3	1	4	248	0.00	30.188 
18:15	23.2	23.2	23.2	81	18.3	1	4	248	0.00	30.190 
18:20	23.2	23.2	23.2	81	18.3	2	5	248	0.00	30.190 
18:25	23.0	23.0	23.0	81	18.1	2	4	248	0.00	30.190 
18:30	23.0	23.0	23.0	81	18.1	1	4	248	0.00	30.201 
18:35	23.0	23.0	23.0	81	18.1	1	3	248	0.00	30.201 
18:40	23.0	23.0	23.0	81	18.1	1	3	248	0.00	30.201 
18:45	22.9	22.9	22.9	82	18.2	2	3	248	0.00	30.203 
18:50	22.9	22.9	22.9	82	18.2	1	4	248	0.00	30.203 
18:55	22.7	22.7	22.7	83	18.3	1	5	248	0.00	30.203 
19:00	22.7	22.7	22.7	83	18.3	1	4	270	0.00	30.208 
19:05	22.7	22.7	22.7	84	18.6	1	3	248	0.00	30.208 
19:10	22.7	22.7	22.7	84	18.6	1	3	248	0.00	30.208 
19:15	22.7	22.7	22.7	84	18.6	1	3	248	0.00	30.216 
19:20	22.9	22.9	22.9	84	18.8	2	4	248	0.00	30.216 
19:25	22.9	22.9	22.9	84	18.8	1	2	248	0.00	30.216 
19:30	22.7	22.7	22.7	84	18.6	1	4	248	0.00	30.220 
19:35	22.7	22.7	22.7	84	18.6	1	3	248	0.00	30.220 
19:40	22.7	22.7	22.7	84	18.6	1	4	248	0.00	30.220 
19:45	22.5	22.5	22.5	84	18.4	1	3	248	0.00	30.227 
19:50	22.4	22.4	22.4	85	18.6	1	2	248	0.00	30.227 
19:55	22.4	22.4	22.4	85	18.6	1	4	248	0.00	30.227 
20:00	22.2	22.2	22.2	85	18.4	1	3	248	0.00	30.234 
20:05	22.4	22.4	22.4	85	18.6	1	3	270	0.00	30.234 
20:10	22.4	22.4	22.4	86	18.9	0	1	270	0.00	30.234 
20:15	22.4	22.4	22.4	86	18.9	0	2	270	0.00	30.247 
20:20	22.4	22.4	22.4	86	18.9	1	2	270	0.00	30.247 
20:25	22.5	22.5	22.5	86	19.0	1	3	248	0.00	30.247 
20:30	22.7	22.7	22.7	86	19.2	1	2	248	0.00	30.253 
20:35	22.9	22.9	22.9	86	19.4	1	4	248	0.00	30.253 
20:40	22.9	22.9	22.9	86	19.4	1	3	248	0.00	30.253 
20:45	23.0	23.0	23.0	86	19.4	0	2	248	0.00	30.263 
20:50	23.0	23.0	23.0	86	19.4	1	3	0	0.00	30.263 
20:55	23.3	23.3	23.3	86	19.7	1	2	0	0.00	30.263 
21:00	23.5	23.5	23.5	86	19.9	1	3	0	0.00	30.263 
21:05	23.3	23.3	23.3	85	19.5	0	2	248	0.00	30.263 
21:10	23.2	23.2	23.2	85	19.4	0	2	338	0.00	30.263 
21:15	22.9	22.9	22.9	85	19.1	0	1	338	0.00	30.266 
21:20	22.7	22.7	22.7	85	18.9	0	1	338	0.00	30.266 
21:25	22.4	22.4	22.4	85	18.6	0	1	338	0.00	30.266 
21:30	22.1	22.1	22.1	85	18.3	0	1	338	0.00	30.274 
21:35	21.9	21.9	21.9	85	18.1	0	0	---	0.00	30.274 
21:40	21.6	21.6	21.6	85	17.8	0	0	---	0.00	30.274 
21:45	21.3	21.3	21.3	85	17.5	0	0	---	0.00	30.281 
21:50	21.1	21.1	21.1	86	17.6	0	0	---	0.00	30.281 
21:55	20.8	20.8	20.8	86	17.3	0	0	---	0.00	30.281 
22:00	20.6	20.6	20.6	86	17.1	0	0	---	0.00	30.283 
22:05	20.5	20.5	20.5	86	17.0	0	0	---	0.00	30.283 
22:10	20.3	20.3	20.3	87	17.1	0	0	---	0.00	30.283 
22:15	20.2	20.2	20.2	87	17.0	0	0	---	0.00	30.283 
22:20	20.2	20.2	20.2	87	17.0	0	0	---	0.00	30.283 
22:25	20.0	20.0	20.0	87	16.8	0	0	---	0.00	30.283 
22:30	19.9	19.9	19.9	88	16.9	0	0	---	0.00	30.284 
22:35	19.9	19.9	19.9	88	16.9	0	0	---	0.00	30.284 
22:40	19.9	19.9	19.9	88	16.9	0	0	---	0.00	30.284 
22:45	19.9	19.9	19.9	88	16.9	0	0	---	0.00	30.285 
22:50	19.9	19.9	19.9	88	16.9	0	0	---	0.00	30.285 
22:55	19.7	19.7	19.7	88	16.7	0	0	---	0.00	30.285 
23:00	19.5	19.5	19.5	88	16.5	0	1	338	0.00	30.293 
23:05	19.4	19.4	19.4	88	16.4	0	0	---	0.00	30.293 
23:10	19.2	19.2	19.2	89	16.5	0	0	---	0.00	30.293 
23:15	19.1	19.1	19.1	89	16.4	0	0	---	0.00	30.298 
23:20	18.9	18.9	18.9	89	16.2	0	0	---	0.00	30.298 
23:25	18.9	18.9	18.9	89	16.2	0	0	---	0.00	30.298 
23:30	18.9	18.9	18.9	89	16.2	0	0	---	0.00	30.297 
23:35	18.6	18.6	18.6	89	15.9	0	0	---	0.00	30.297 
23:40	18.4	18.4	18.4	89	15.7	0	0	---	0.00	30.297 
23:45	18.4	18.4	18.4	89	15.7	0	0	---	0.00	30.300 
23:50	18.4	18.4	18.4	89	15.7	0	1	338	0.00	30.300 
23:55	18.8	18.8	18.8	90	16.4	0	1	338	0.00	30.300 

CoCoRaHS
IN-AL-39
A2 Web Hosting
Creative Commons License
GoDaddy
search engine by freefind advanced

loaded 2018-11-15 18:55:14 • last modified 2010-11-18 10:43:29
Privacy PolicyDisclaimer
• wx.awcolley.com is powered by PmWiki v.2002016 •
• all content (unless otherwise noted) © 2018 A W Colley